sensor_id;sensor_type;location;lat;lon;timestamp;P1;durP1;ratioP1;P2;durP2;ratioP2
76292;SDS011;67256;51.154;4.164;2023-02-01T00:02:04;27.02;;;7.00;;
76292;SDS011;67256;51.154;4.164;2023-02-01T00:04:30;29.95;;;7.95;;
76292;SDS011;67256;51.154;4.164;2023-02-01T00:06:56;23.63;;;7.22;;
76292;SDS011;67256;51.154;4.164;2023-02-01T00:09:23;26.30;;;6.80;;
76292;SDS011;67256;51.154;4.164;2023-02-01T00:11:49;21.95;;;6.22;;
76292;SDS011;67256;51.154;4.164;2023-02-01T00:14:15;23.70;;;6.82;;
76292;SDS011;67256;51.154;4.164;2023-02-01T00:16:42;29.10;;;7.55;;
76292;SDS011;67256;51.154;4.164;2023-02-01T00:19:11;19.05;;;5.88;;
76292;SDS011;67256;51.154;4.164;2023-02-01T00:21:40;29.20;;;8.10;;
76292;SDS011;67256;51.154;4.164;2023-02-01T00:24:06;24.15;;;7.03;;
76292;SDS011;67256;51.154;4.164;2023-02-01T00:26:35;26.35;;;7.53;;
76292;SDS011;67256;51.154;4.164;2023-02-01T00:29:07;29.67;;;7.10;;
76292;SDS011;67256;51.154;4.164;2023-02-01T00:31:37;25.23;;;7.65;;
76292;SDS011;67256;51.154;4.164;2023-02-01T00:34:03;23.10;;;6.72;;
76292;SDS011;67256;51.154;4.164;2023-02-01T00:36:29;25.73;;;6.18;;
76292;SDS011;67256;51.154;4.164;2023-02-01T00:38:55;22.67;;;6.18;;
76292;SDS011;67256;51.154;4.164;2023-02-01T00:41:21;29.48;;;7.40;;
76292;SDS011;67256;51.154;4.164;2023-02-01T00:43:47;24.08;;;6.60;;
76292;SDS011;67256;51.154;4.164;2023-02-01T00:46:15;26.65;;;6.35;;
76292;SDS011;67256;51.154;4.164;2023-02-01T00:48:42;29.13;;;6.47;;
76292;SDS011;67256;51.154;4.164;2023-02-01T00:51:09;22.25;;;6.45;;
76292;SDS011;67256;51.154;4.164;2023-02-01T00:53:37;23.10;;;5.38;;
76292;SDS011;67256;51.154;4.164;2023-02-01T00:56:04;30.02;;;6.57;;
76292;SDS011;67256;51.154;4.164;2023-02-01T00:58:31;25.15;;;7.07;;
76292;SDS011;67256;51.154;4.164;2023-02-01T01:03:33;22.67;;;5.80;;
76292;SDS011;67256;51.154;4.164;2023-02-01T01:06:02;18.65;;;5.50;;
76292;SDS011;67256;51.154;4.164;2023-02-01T01:08:30;21.58;;;5.68;;
76292;SDS011;67256;51.154;4.164;2023-02-01T01:10:56;26.08;;;6.38;;
76292;SDS011;67256;51.154;4.164;2023-02-01T01:13:21;21.40;;;5.97;;
76292;SDS011;67256;51.154;4.164;2023-02-01T01:15:47;21.00;;;5.78;;
76292;SDS011;67256;51.154;4.164;2023-02-01T01:18:13;25.90;;;7.78;;
76292;SDS011;67256;51.154;4.164;2023-02-01T01:20:39;18.27;;;5.35;;
76292;SDS011;67256;51.154;4.164;2023-02-01T01:23:06;23.35;;;7.18;;
76292;SDS011;67256;51.154;4.164;2023-02-01T01:25:36;23.10;;;6.10;;
76292;SDS011;67256;51.154;4.164;2023-02-01T01:28:06;29.95;;;6.63;;
76292;SDS011;67256;51.154;4.164;2023-02-01T01:30:35;25.58;;;6.22;;
76292;SDS011;67256;51.154;4.164;2023-02-01T01:33:01;21.15;;;6.10;;
76292;SDS011;67256;51.154;4.164;2023-02-01T01:35:31;21.63;;;5.97;;
76292;SDS011;67256;51.154;4.164;2023-02-01T01:40:24;27.67;;;8.57;;
76292;SDS011;67256;51.154;4.164;2023-02-01T01:42:51;28.50;;;7.30;;
76292;SDS011;67256;51.154;4.164;2023-02-01T01:45:21;27.88;;;7.28;;
76292;SDS011;67256;51.154;4.164;2023-02-01T01:47:51;25.77;;;5.65;;
76292;SDS011;67256;51.154;4.164;2023-02-01T01:50:43;19.58;;;4.72;;
76292;SDS011;67256;51.154;4.164;2023-02-01T01:53:14;22.75;;;6.22;;
76292;SDS011;67256;51.154;4.164;2023-02-01T01:55:44;31.45;;;7.07;;
76292;SDS011;67256;51.154;4.164;2023-02-01T01:58:14;23.38;;;5.50;;
76292;SDS011;67256;51.154;4.164;2023-02-01T02:00:43;21.52;;;6.28;;
76292;SDS011;67256;51.154;4.164;2023-02-01T02:05:50;27.45;;;6.60;;
76292;SDS011;67256;51.154;4.164;2023-02-01T02:08:18;24.05;;;6.65;;
76292;SDS011;67256;51.154;4.164;2023-02-01T02:10:45;30.30;;;6.35;;
76292;SDS011;67256;51.154;4.164;2023-02-01T02:13:29;24.33;;;7.90;;
76292;SDS011;67256;51.154;4.164;2023-02-01T02:16:04;23.83;;;7.43;;
76292;SDS011;67256;51.154;4.164;2023-02-01T02:35:02;19.13;;;4.07;;
76292;SDS011;67256;51.154;4.164;2023-02-01T02:43:23;21.60;;;5.35;;
76292;SDS011;67256;51.154;4.164;2023-02-01T02:46:33;20.45;;;5.28;;
76292;SDS011;67256;51.154;4.164;2023-02-01T02:52:04;17.13;;;4.03;;
76292;SDS011;67256;51.154;4.164;2023-02-01T02:54:57;22.25;;;4.75;;
76292;SDS011;67256;51.154;4.164;2023-02-01T03:00:17;24.55;;;4.80;;
76292;SDS011;67256;51.154;4.164;2023-02-01T03:03:04;18.58;;;4.20;;
76292;SDS011;67256;51.154;4.164;2023-02-01T03:05:49;19.02;;;4.53;;
76292;SDS011;67256;51.154;4.164;2023-02-01T03:08:19;22.25;;;5.15;;
76292;SDS011;67256;51.154;4.164;2023-02-01T03:18:57;20.55;;;4.63;;
76292;SDS011;67256;51.154;4.164;2023-02-01T03:21:30;19.67;;;4.50;;
76292;SDS011;67256;51.154;4.164;2023-02-01T03:23:58;27.02;;;5.18;;
76292;SDS011;67256;51.154;4.164;2023-02-01T03:26:28;25.48;;;5.07;;
76292;SDS011;67256;51.154;4.164;2023-02-01T03:28:57;24.00;;;5.20;;
76292;SDS011;67256;51.154;4.164;2023-02-01T03:31:27;27.20;;;6.07;;
76292;SDS011;67256;51.154;4.164;2023-02-01T03:33:54;22.92;;;4.78;;
76292;SDS011;67256;51.154;4.164;2023-02-01T03:36:25;16.48;;;5.15;;
76292;SDS011;67256;51.154;4.164;2023-02-01T03:42:01;27.98;;;5.85;;
76292;SDS011;67256;51.154;4.164;2023-02-01T03:44:32;19.50;;;4.75;;
76292;SDS011;67256;51.154;4.164;2023-02-01T03:47:05;16.90;;;4.53;;
76292;SDS011;67256;51.154;4.164;2023-02-01T03:49:43;28.52;;;4.82;;
76292;SDS011;67256;51.154;4.164;2023-02-01T03:52:24;24.00;;;4.22;;
76292;SDS011;67256;51.154;4.164;2023-02-01T03:54:55;19.20;;;4.53;;
76292;SDS011;67256;51.154;4.164;2023-02-01T03:57:24;21.85;;;5.57;;
76292;SDS011;67256;51.154;4.164;2023-02-01T03:59:54;30.35;;;6.25;;
76292;SDS011;67256;51.154;4.164;2023-02-01T04:02:30;23.95;;;5.05;;
76292;SDS011;67256;51.154;4.164;2023-02-01T04:04:56;19.17;;;4.75;;
76292;SDS011;67256;51.154;4.164;2023-02-01T04:07:22;24.35;;;4.78;;
76292;SDS011;67256;51.154;4.164;2023-02-01T04:09:48;21.05;;;5.38;;
76292;SDS011;67256;51.154;4.164;2023-02-01T04:12:13;22.70;;;4.75;;
76292;SDS011;67256;51.154;4.164;2023-02-01T04:14:40;26.10;;;5.28;;
76292;SDS011;67256;51.154;4.164;2023-02-01T04:17:06;22.40;;;4.68;;
76292;SDS011;67256;51.154;4.164;2023-02-01T04:19:31;27.33;;;4.55;;
76292;SDS011;67256;51.154;4.164;2023-02-01T04:21:57;23.88;;;5.25;;
76292;SDS011;67256;51.154;4.164;2023-02-01T04:24:23;28.38;;;5.80;;
76292;SDS011;67256;51.154;4.164;2023-02-01T04:26:49;14.48;;;4.07;;
76292;SDS011;67256;51.154;4.164;2023-02-01T04:29:15;32.90;;;6.07;;
76292;SDS011;67256;51.154;4.164;2023-02-01T04:31:41;33.05;;;6.07;;
76292;SDS011;67256;51.154;4.164;2023-02-01T04:34:06;18.40;;;4.60;;
76292;SDS011;67256;51.154;4.164;2023-02-01T04:36:32;21.25;;;4.93;;
76292;SDS011;67256;51.154;4.164;2023-02-01T04:38:58;28.95;;;5.57;;
76292;SDS011;67256;51.154;4.164;2023-02-01T04:41:24;27.95;;;5.40;;
76292;SDS011;67256;51.154;4.164;2023-02-01T04:43:50;28.02;;;5.40;;
76292;SDS011;67256;51.154;4.164;2023-02-01T04:46:17;35.70;;;5.82;;
76292;SDS011;67256;51.154;4.164;2023-02-01T04:48:43;29.90;;;5.25;;
76292;SDS011;67256;51.154;4.164;2023-02-01T04:51:09;22.65;;;6.50;;
76292;SDS011;67256;51.154;4.164;2023-02-01T04:53:36;31.08;;;5.70;;
76292;SDS011;67256;51.154;4.164;2023-02-01T04:56:02;17.77;;;4.53;;
76292;SDS011;67256;51.154;4.164;2023-02-01T04:58:28;31.02;;;6.15;;
76292;SDS011;67256;51.154;4.164;2023-02-01T05:00:54;26.88;;;4.20;;
76292;SDS011;67256;51.154;4.164;2023-02-01T05:03:20;28.70;;;6.25;;
76292;SDS011;67256;51.154;4.164;2023-02-01T05:05:47;26.38;;;5.35;;
76292;SDS011;67256;51.154;4.164;2023-02-01T05:08:13;24.80;;;6.25;;
76292;SDS011;67256;51.154;4.164;2023-02-01T05:10:40;19.67;;;4.43;;
76292;SDS011;67256;51.154;4.164;2023-02-01T05:13:07;23.70;;;4.65;;
76292;SDS011;67256;51.154;4.164;2023-02-01T05:15:52;23.80;;;5.05;;
76292;SDS011;67256;51.154;4.164;2023-02-01T05:18:18;23.05;;;5.13;;
76292;SDS011;67256;51.154;4.164;2023-02-01T05:20:43;19.08;;;4.55;;
76292;SDS011;67256;51.154;4.164;2023-02-01T05:23:09;26.85;;;5.43;;
76292;SDS011;67256;51.154;4.164;2023-02-01T05:25:35;29.30;;;6.07;;
76292;SDS011;67256;51.154;4.164;2023-02-01T05:28:01;18.00;;;5.03;;
76292;SDS011;67256;51.154;4.164;2023-02-01T05:30:26;28.05;;;5.82;;
76292;SDS011;67256;51.154;4.164;2023-02-01T05:32:52;26.88;;;6.20;;
76292;SDS011;67256;51.154;4.164;2023-02-01T05:35:19;25.13;;;5.32;;
76292;SDS011;67256;51.154;4.164;2023-02-01T05:37:45;26.98;;;6.03;;
76292;SDS011;67256;51.154;4.164;2023-02-01T05:40:11;23.50;;;5.25;;
76292;SDS011;67256;51.154;4.164;2023-02-01T05:42:37;29.73;;;5.38;;
76292;SDS011;67256;51.154;4.164;2023-02-01T05:45:03;25.35;;;5.75;;
76292;SDS011;67256;51.154;4.164;2023-02-01T05:47:30;27.23;;;4.82;;
76292;SDS011;67256;51.154;4.164;2023-02-01T05:49:56;20.60;;;5.38;;
76292;SDS011;67256;51.154;4.164;2023-02-01T05:52:22;18.15;;;4.25;;
76292;SDS011;67256;51.154;4.164;2023-02-01T05:54:48;23.63;;;5.20;;
76292;SDS011;67256;51.154;4.164;2023-02-01T05:57:14;19.85;;;4.95;;
76292;SDS011;67256;51.154;4.164;2023-02-01T05:59:40;26.98;;;5.40;;
76292;SDS011;67256;51.154;4.164;2023-02-01T06:02:07;23.42;;;5.18;;
76292;SDS011;67256;51.154;4.164;2023-02-01T06:04:34;25.65;;;5.88;;
76292;SDS011;67256;51.154;4.164;2023-02-01T06:07:01;20.67;;;4.30;;
76292;SDS011;67256;51.154;4.164;2023-02-01T06:09:27;19.75;;;6.18;;
76292;SDS011;67256;51.154;4.164;2023-02-01T06:11:53;25.85;;;5.13;;
76292;SDS011;67256;51.154;4.164;2023-02-01T06:14:20;18.63;;;5.25;;
76292;SDS011;67256;51.154;4.164;2023-02-01T06:16:46;32.20;;;6.55;;
76292;SDS011;67256;51.154;4.164;2023-02-01T06:19:12;19.08;;;5.50;;
76292;SDS011;67256;51.154;4.164;2023-02-01T06:21:39;24.60;;;6.22;;
76292;SDS011;67256;51.154;4.164;2023-02-01T06:24:04;22.77;;;5.03;;
76292;SDS011;67256;51.154;4.164;2023-02-01T06:26:31;20.13;;;4.65;;
76292;SDS011;67256;51.154;4.164;2023-02-01T06:28:57;15.32;;;4.53;;
76292;SDS011;67256;51.154;4.164;2023-02-01T06:31:23;17.58;;;6.00;;
76292;SDS011;67256;51.154;4.164;2023-02-01T06:33:50;25.45;;;5.30;;
76292;SDS011;67256;51.154;4.164;2023-02-01T06:36:16;26.02;;;5.28;;
76292;SDS011;67256;51.154;4.164;2023-02-01T06:38:44;32.15;;;5.88;;
76292;SDS011;67256;51.154;4.164;2023-02-01T06:41:09;22.00;;;5.07;;
76292;SDS011;67256;51.154;4.164;2023-02-01T06:43:36;21.58;;;5.25;;
76292;SDS011;67256;51.154;4.164;2023-02-01T06:46:03;19.90;;;4.63;;
76292;SDS011;67256;51.154;4.164;2023-02-01T06:48:31;28.85;;;5.63;;
76292;SDS011;67256;51.154;4.164;2023-02-01T06:50:57;25.90;;;4.93;;
76292;SDS011;67256;51.154;4.164;2023-02-01T06:53:23;34.95;;;7.72;;
76292;SDS011;67256;51.154;4.164;2023-02-01T06:58:31;24.17;;;5.43;;
76292;SDS011;67256;51.154;4.164;2023-02-01T07:01:00;24.50;;;5.28;;
76292;SDS011;67256;51.154;4.164;2023-02-01T07:03:31;24.38;;;5.35;;
76292;SDS011;67256;51.154;4.164;2023-02-01T07:05:56;29.15;;;5.28;;
76292;SDS011;67256;51.154;4.164;2023-02-01T07:08:28;28.55;;;5.82;;
76292;SDS011;67256;51.154;4.164;2023-02-01T07:10:55;23.27;;;4.00;;
76292;SDS011;67256;51.154;4.164;2023-02-01T07:13:22;27.15;;;5.00;;
76292;SDS011;67256;51.154;4.164;2023-02-01T07:15:47;20.50;;;4.20;;
76292;SDS011;67256;51.154;4.164;2023-02-01T07:18:14;22.98;;;5.03;;
76292;SDS011;67256;51.154;4.164;2023-02-01T07:20:40;24.10;;;5.50;;
76292;SDS011;67256;51.154;4.164;2023-02-01T07:23:08;28.40;;;5.57;;
76292;SDS011;67256;51.154;4.164;2023-02-01T07:25:35;29.98;;;6.85;;
76292;SDS011;67256;51.154;4.164;2023-02-01T07:28:01;23.15;;;5.68;;
76292;SDS011;67256;51.154;4.164;2023-02-01T07:30:27;29.65;;;5.88;;
76292;SDS011;67256;51.154;4.164;2023-02-01T07:32:53;20.98;;;5.53;;
76292;SDS011;67256;51.154;4.164;2023-02-01T07:35:19;23.48;;;5.05;;
76292;SDS011;67256;51.154;4.164;2023-02-01T07:37:45;26.08;;;5.72;;
76292;SDS011;67256;51.154;4.164;2023-02-01T07:40:11;28.40;;;5.75;;
76292;SDS011;67256;51.154;4.164;2023-02-01T07:42:37;23.40;;;4.43;;
76292;SDS011;67256;51.154;4.164;2023-02-01T07:45:03;25.80;;;5.25;;
76292;SDS011;67256;51.154;4.164;2023-02-01T07:47:30;22.77;;;4.65;;
76292;SDS011;67256;51.154;4.164;2023-02-01T07:49:56;23.00;;;5.55;;
76292;SDS011;67256;51.154;4.164;2023-02-01T07:52:22;29.52;;;4.97;;
76292;SDS011;67256;51.154;4.164;2023-02-01T07:54:48;25.20;;;7.22;;
76292;SDS011;67256;51.154;4.164;2023-02-01T07:57:13;29.30;;;5.63;;
76292;SDS011;67256;51.154;4.164;2023-02-01T07:59:39;32.20;;;6.43;;
76292;SDS011;67256;51.154;4.164;2023-02-01T08:02:25;27.23;;;5.55;;
76292;SDS011;67256;51.154;4.164;2023-02-01T08:04:51;37.00;;;6.63;;
76292;SDS011;67256;51.154;4.164;2023-02-01T08:07:16;28.30;;;6.00;;
76292;SDS011;67256;51.154;4.164;2023-02-01T08:09:42;29.35;;;6.95;;
76292;SDS011;67256;51.154;4.164;2023-02-01T08:12:08;27.42;;;5.38;;
76292;SDS011;67256;51.154;4.164;2023-02-01T08:14:34;35.83;;;6.40;;
76292;SDS011;67256;51.154;4.164;2023-02-01T08:16:59;26.73;;;5.22;;
76292;SDS011;67256;51.154;4.164;2023-02-01T08:19:25;26.17;;;6.63;;
76292;SDS011;67256;51.154;4.164;2023-02-01T08:21:51;24.90;;;4.55;;
76292;SDS011;67256;51.154;4.164;2023-02-01T08:24:17;29.60;;;6.50;;
76292;SDS011;67256;51.154;4.164;2023-02-01T08:26:42;34.65;;;7.30;;
76292;SDS011;67256;51.154;4.164;2023-02-01T08:29:08;32.70;;;6.40;;
76292;SDS011;67256;51.154;4.164;2023-02-01T08:31:37;21.73;;;6.30;;
76292;SDS011;67256;51.154;4.164;2023-02-01T08:34:05;28.40;;;5.63;;
76292;SDS011;67256;51.154;4.164;2023-02-01T08:36:33;31.77;;;4.80;;
76292;SDS011;67256;51.154;4.164;2023-02-01T08:38:59;19.48;;;5.45;;
76292;SDS011;67256;51.154;4.164;2023-02-01T08:41:26;26.25;;;4.85;;
76292;SDS011;67256;51.154;4.164;2023-02-01T08:43:54;35.70;;;5.77;;
76292;SDS011;67256;51.154;4.164;2023-02-01T08:46:22;32.78;;;5.90;;
76292;SDS011;67256;51.154;4.164;2023-02-01T08:48:48;23.40;;;5.55;;
76292;SDS011;67256;51.154;4.164;2023-02-01T08:51:16;16.73;;;4.32;;
76292;SDS011;67256;51.154;4.164;2023-02-01T08:53:44;31.10;;;7.18;;
76292;SDS011;67256;51.154;4.164;2023-02-01T08:56:11;34.78;;;6.65;;
76292;SDS011;67256;51.154;4.164;2023-02-01T08:58:37;25.45;;;5.85;;
76292;SDS011;67256;51.154;4.164;2023-02-01T09:01:04;26.35;;;5.07;;
76292;SDS011;67256;51.154;4.164;2023-02-01T09:03:31;22.42;;;6.22;;
76292;SDS011;67256;51.154;4.164;2023-02-01T09:06:04;28.52;;;5.80;;
76292;SDS011;67256;51.154;4.164;2023-02-01T09:08:35;21.73;;;5.43;;
76292;SDS011;67256;51.154;4.164;2023-02-01T09:11:02;29.15;;;6.10;;
76292;SDS011;67256;51.154;4.164;2023-02-01T09:13:30;22.65;;;6.28;;
76292;SDS011;67256;51.154;4.164;2023-02-01T09:15:56;26.42;;;5.03;;
76292;SDS011;67256;51.154;4.164;2023-02-01T09:18:22;22.13;;;5.15;;
76292;SDS011;67256;51.154;4.164;2023-02-01T09:20:48;29.58;;;8.52;;
76292;SDS011;67256;51.154;4.164;2023-02-01T09:23:14;25.08;;;4.60;;
76292;SDS011;67256;51.154;4.164;2023-02-01T09:25:39;28.23;;;5.40;;
76292;SDS011;67256;51.154;4.164;2023-02-01T09:28:05;21.50;;;6.18;;
76292;SDS011;67256;51.154;4.164;2023-02-01T09:30:32;22.42;;;4.78;;
76292;SDS011;67256;51.154;4.164;2023-02-01T09:32:59;25.00;;;5.80;;
76292;SDS011;67256;51.154;4.164;2023-02-01T09:35:25;27.85;;;5.47;;
76292;SDS011;67256;51.154;4.164;2023-02-01T09:37:52;20.55;;;5.50;;
76292;SDS011;67256;51.154;4.164;2023-02-01T09:40:18;23.40;;;5.53;;
76292;SDS011;67256;51.154;4.164;2023-02-01T09:45:41;29.52;;;5.38;;
76292;SDS011;67256;51.154;4.164;2023-02-01T09:48:34;26.90;;;5.73;;
76292;SDS011;67256;51.154;4.164;2023-02-01T09:51:05;24.85;;;6.07;;
76292;SDS011;67256;51.154;4.164;2023-02-01T09:53:43;18.08;;;4.72;;
76292;SDS011;67256;51.154;4.164;2023-02-01T09:56:18;23.92;;;5.20;;
76292;SDS011;67256;51.154;4.164;2023-02-01T10:01:24;20.30;;;4.97;;
76292;SDS011;67256;51.154;4.164;2023-02-01T10:03:51;21.95;;;6.47;;
76292;SDS011;67256;51.154;4.164;2023-02-01T10:23:20;19.45;;;4.97;;
76292;SDS011;67256;51.154;4.164;2023-02-01T10:25:56;20.27;;;4.28;;
76292;SDS011;67256;51.154;4.164;2023-02-01T10:28:34;19.25;;;3.40;;
76292;SDS011;67256;51.154;4.164;2023-02-01T10:31:02;16.13;;;4.05;;
76292;SDS011;67256;51.154;4.164;2023-02-01T10:33:41;22.05;;;4.22;;
76292;SDS011;67256;51.154;4.164;2023-02-01T10:36:20;20.67;;;6.07;;
76292;SDS011;67256;51.154;4.164;2023-02-01T10:38:57;20.73;;;3.80;;
76292;SDS011;67256;51.154;4.164;2023-02-01T10:41:24;17.20;;;3.50;;
76292;SDS011;67256;51.154;4.164;2023-02-01T10:44:00;28.08;;;3.95;;
76292;SDS011;67256;51.154;4.164;2023-02-01T10:46:31;21.52;;;3.67;;
76292;SDS011;67256;51.154;4.164;2023-02-01T10:49:00;19.08;;;4.07;;
76292;SDS011;67256;51.154;4.164;2023-02-01T10:54:11;18.10;;;3.75;;
76292;SDS011;67256;51.154;4.164;2023-02-01T10:56:45;21.55;;;4.22;;
76292;SDS011;67256;51.154;4.164;2023-02-01T10:59:18;15.02;;;3.47;;
76292;SDS011;67256;51.154;4.164;2023-02-01T11:01:47;15.25;;;4.35;;
76292;SDS011;67256;51.154;4.164;2023-02-01T11:04:20;18.92;;;3.50;;
76292;SDS011;67256;51.154;4.164;2023-02-01T11:06:53;13.35;;;3.33;;
76292;SDS011;67256;51.154;4.164;2023-02-01T11:09:32;16.05;;;3.92;;
76292;SDS011;67256;51.154;4.164;2023-02-01T11:12:04;20.90;;;3.72;;
76292;SDS011;67256;51.154;4.164;2023-02-01T11:14:50;18.05;;;4.38;;
76292;SDS011;67256;51.154;4.164;2023-02-01T11:17:24;19.13;;;4.03;;
76292;SDS011;67256;51.154;4.164;2023-02-01T11:19:59;22.50;;;4.28;;
76292;SDS011;67256;51.154;4.164;2023-02-01T11:22:27;14.80;;;3.38;;
76292;SDS011;67256;51.154;4.164;2023-02-01T11:24:55;18.52;;;4.40;;
76292;SDS011;67256;51.154;4.164;2023-02-01T11:27:22;14.10;;;3.20;;
76292;SDS011;67256;51.154;4.164;2023-02-01T11:29:50;15.25;;;3.55;;
76292;SDS011;67256;51.154;4.164;2023-02-01T11:32:19;11.88;;;3.88;;
76292;SDS011;67256;51.154;4.164;2023-02-01T11:34:52;12.68;;;2.92;;
76292;SDS011;67256;51.154;4.164;2023-02-01T11:37:31;21.63;;;3.83;;
76292;SDS011;67256;51.154;4.164;2023-02-01T11:40:03;16.23;;;3.45;;
76292;SDS011;67256;51.154;4.164;2023-02-01T11:42:55;8.07;;;2.20;;
76292;SDS011;67256;51.154;4.164;2023-02-01T11:45:25;14.35;;;3.50;;
76292;SDS011;67256;51.154;4.164;2023-02-01T11:47:56;12.38;;;3.45;;
76292;SDS011;67256;51.154;4.164;2023-02-01T11:55:44;14.48;;;3.50;;
76292;SDS011;67256;51.154;4.164;2023-02-01T12:12:24;16.98;;;2.83;;
76292;SDS011;67256;51.154;4.164;2023-02-01T12:15:27;15.77;;;3.50;;
76292;SDS011;67256;51.154;4.164;2023-02-01T12:26:12;15.02;;;3.42;;
76292;SDS011;67256;51.154;4.164;2023-02-01T12:34:37;19.08;;;3.25;;
76292;SDS011;67256;51.154;4.164;2023-02-01T12:42:26;15.85;;;3.22;;
76292;SDS011;67256;51.154;4.164;2023-02-01T12:45:01;17.00;;;3.83;;
76292;SDS011;67256;51.154;4.164;2023-02-01T12:53:09;19.27;;;3.70;;
76292;SDS011;67256;51.154;4.164;2023-02-01T12:55:49;10.13;;;2.33;;
76292;SDS011;67256;51.154;4.164;2023-02-01T12:58:26;14.90;;;2.70;;
76292;SDS011;67256;51.154;4.164;2023-02-01T13:01:04;9.93;;;3.20;;
76292;SDS011;67256;51.154;4.164;2023-02-01T13:06:17;14.30;;;2.80;;
76292;SDS011;67256;51.154;4.164;2023-02-01T13:08:52;15.57;;;3.05;;
76292;SDS011;67256;51.154;4.164;2023-02-01T13:11:27;15.65;;;2.65;;
76292;SDS011;67256;51.154;4.164;2023-02-01T13:13:59;14.27;;;3.05;;
76292;SDS011;67256;51.154;4.164;2023-02-01T13:16:28;18.00;;;3.08;;
76292;SDS011;67256;51.154;4.164;2023-02-01T13:22:05;16.20;;;2.78;;
76292;SDS011;67256;51.154;4.164;2023-02-01T13:24:41;13.25;;;3.05;;
76292;SDS011;67256;51.154;4.164;2023-02-01T13:27:17;13.10;;;3.20;;
76292;SDS011;67256;51.154;4.164;2023-02-01T13:29:59;15.07;;;3.22;;
76292;SDS011;67256;51.154;4.164;2023-02-01T13:41:55;16.25;;;3.35;;
76292;SDS011;67256;51.154;4.164;2023-02-01T13:47:20;11.68;;;2.75;;
76292;SDS011;67256;51.154;4.164;2023-02-01T13:49:51;15.48;;;2.60;;
76292;SDS011;67256;51.154;4.164;2023-02-01T13:52:24;16.23;;;3.47;;
76292;SDS011;67256;51.154;4.164;2023-02-01T13:57:40;12.98;;;2.60;;
76292;SDS011;67256;51.154;4.164;2023-02-01T14:23:44;13.75;;;3.03;;
76292;SDS011;67256;51.154;4.164;2023-02-01T14:26:12;19.50;;;4.43;;
76292;SDS011;67256;51.154;4.164;2023-02-01T14:28:44;11.25;;;2.97;;
76292;SDS011;67256;51.154;4.164;2023-02-01T14:31:17;18.73;;;5.28;;
76292;SDS011;67256;51.154;4.164;2023-02-01T14:33:54;14.77;;;4.22;;
76292;SDS011;67256;51.154;4.164;2023-02-01T14:36:24;17.63;;;3.72;;
76292;SDS011;67256;51.154;4.164;2023-02-01T14:38:50;14.35;;;3.13;;
76292;SDS011;67256;51.154;4.164;2023-02-01T14:41:25;17.65;;;3.30;;
76292;SDS011;67256;51.154;4.164;2023-02-01T14:52:46;20.88;;;4.32;;
76292;SDS011;67256;51.154;4.164;2023-02-01T14:55:40;18.42;;;3.97;;
76292;SDS011;67256;51.154;4.164;2023-02-01T15:00:52;17.42;;;4.22;;
76292;SDS011;67256;51.154;4.164;2023-02-01T15:05:54;19.55;;;4.05;;
76292;SDS011;67256;51.154;4.164;2023-02-01T15:08:26;27.60;;;5.45;;
76292;SDS011;67256;51.154;4.164;2023-02-01T15:10:55;26.05;;;6.22;;
76292;SDS011;67256;51.154;4.164;2023-02-01T15:13:26;16.52;;;4.75;;
76292;SDS011;67256;51.154;4.164;2023-02-01T15:16:08;18.60;;;4.35;;
76292;SDS011;67256;51.154;4.164;2023-02-01T15:18:37;19.92;;;4.63;;
76292;SDS011;67256;51.154;4.164;2023-02-01T15:21:04;18.63;;;4.55;;
76292;SDS011;67256;51.154;4.164;2023-02-01T15:23:32;19.48;;;3.80;;
76292;SDS011;67256;51.154;4.164;2023-02-01T15:25:58;15.00;;;3.83;;
76292;SDS011;67256;51.154;4.164;2023-02-01T15:28:24;15.95;;;4.07;;
76292;SDS011;67256;51.154;4.164;2023-02-01T15:30:55;20.30;;;4.30;;
76292;SDS011;67256;51.154;4.164;2023-02-01T15:33:26;15.25;;;3.72;;
76292;SDS011;67256;51.154;4.164;2023-02-01T15:35:54;20.08;;;4.30;;
76292;SDS011;67256;51.154;4.164;2023-02-01T15:38:36;27.85;;;4.30;;
76292;SDS011;67256;51.154;4.164;2023-02-01T15:41:07;18.38;;;3.83;;
76292;SDS011;67256;51.154;4.164;2023-02-01T15:43:36;19.67;;;3.30;;
76292;SDS011;67256;51.154;4.164;2023-02-01T15:46:23;26.23;;;4.47;;
76292;SDS011;67256;51.154;4.164;2023-02-01T15:48:55;18.80;;;4.50;;
76292;SDS011;67256;51.154;4.164;2023-02-01T15:51:22;18.70;;;4.68;;
76292;SDS011;67256;51.154;4.164;2023-02-01T15:53:53;21.05;;;4.80;;
76292;SDS011;67256;51.154;4.164;2023-02-01T15:56:23;20.90;;;4.82;;
76292;SDS011;67256;51.154;4.164;2023-02-01T15:58:53;27.35;;;5.20;;
76292;SDS011;67256;51.154;4.164;2023-02-01T16:01:21;24.70;;;5.20;;
76292;SDS011;67256;51.154;4.164;2023-02-01T16:03:47;20.67;;;4.47;;
76292;SDS011;67256;51.154;4.164;2023-02-01T16:11:31;22.92;;;6.00;;
76292;SDS011;67256;51.154;4.164;2023-02-01T16:13:59;28.95;;;5.13;;
76292;SDS011;67256;51.154;4.164;2023-02-01T16:16:26;22.55;;;4.93;;
76292;SDS011;67256;51.154;4.164;2023-02-01T16:18:53;22.17;;;3.78;;
76292;SDS011;67256;51.154;4.164;2023-02-01T16:21:19;23.83;;;5.97;;
76292;SDS011;67256;51.154;4.164;2023-02-01T16:23:49;29.85;;;4.95;;
76292;SDS011;67256;51.154;4.164;2023-02-01T16:26:15;22.48;;;5.03;;
76292;SDS011;67256;51.154;4.164;2023-02-01T16:28:41;22.15;;;4.40;;
76292;SDS011;67256;51.154;4.164;2023-02-01T16:31:17;17.52;;;4.25;;
76292;SDS011;67256;51.154;4.164;2023-02-01T16:33:51;19.50;;;4.50;;
76292;SDS011;67256;51.154;4.164;2023-02-01T16:36:17;23.95;;;4.28;;
76292;SDS011;67256;51.154;4.164;2023-02-01T16:38:44;22.23;;;5.18;;
76292;SDS011;67256;51.154;4.164;2023-02-01T16:41:13;18.48;;;4.68;;
76292;SDS011;67256;51.154;4.164;2023-02-01T16:43:39;19.73;;;4.93;;
76292;SDS011;67256;51.154;4.164;2023-02-01T16:46:05;28.50;;;5.30;;
76292;SDS011;67256;51.154;4.164;2023-02-01T16:48:41;24.10;;;4.30;;
76292;SDS011;67256;51.154;4.164;2023-02-01T16:53:38;26.95;;;6.00;;
76292;SDS011;67256;51.154;4.164;2023-02-01T16:56:14;18.25;;;4.88;;
76292;SDS011;67256;51.154;4.164;2023-02-01T16:59:00;21.08;;;5.82;;
76292;SDS011;67256;51.154;4.164;2023-02-01T17:01:27;24.25;;;3.92;;
76292;SDS011;67256;51.154;4.164;2023-02-01T17:03:53;24.20;;;5.85;;
76292;SDS011;67256;51.154;4.164;2023-02-01T17:06:20;31.02;;;5.00;;
76292;SDS011;67256;51.154;4.164;2023-02-01T17:08:49;21.58;;;5.75;;
76292;SDS011;67256;51.154;4.164;2023-02-01T17:11:17;26.58;;;4.78;;
76292;SDS011;67256;51.154;4.164;2023-02-01T17:13:43;25.52;;;4.95;;
76292;SDS011;67256;51.154;4.164;2023-02-01T17:18:41;24.92;;;5.38;;
76292;SDS011;67256;51.154;4.164;2023-02-01T17:21:08;24.45;;;6.53;;
76292;SDS011;67256;51.154;4.164;2023-02-01T17:23:35;21.60;;;4.97;;
76292;SDS011;67256;51.154;4.164;2023-02-01T17:26:01;22.15;;;4.88;;
76292;SDS011;67256;51.154;4.164;2023-02-01T17:28:27;18.65;;;6.90;;
76292;SDS011;67256;51.154;4.164;2023-02-01T17:30:54;19.80;;;4.68;;
76292;SDS011;67256;51.154;4.164;2023-02-01T17:33:25;20.92;;;5.22;;
76292;SDS011;67256;51.154;4.164;2023-02-01T17:35:56;20.67;;;5.10;;
76292;SDS011;67256;51.154;4.164;2023-02-01T17:38:23;20.75;;;4.72;;
76292;SDS011;67256;51.154;4.164;2023-02-01T17:40:49;19.50;;;4.43;;
76292;SDS011;67256;51.154;4.164;2023-02-01T17:43:17;24.52;;;4.50;;
76292;SDS011;67256;51.154;4.164;2023-02-01T17:45:57;21.73;;;5.50;;
76292;SDS011;67256;51.154;4.164;2023-02-01T17:48:30;22.25;;;5.50;;
76292;SDS011;67256;51.154;4.164;2023-02-01T17:50:55;17.25;;;4.75;;
76292;SDS011;67256;51.154;4.164;2023-02-01T17:53:25;24.63;;;6.05;;
76292;SDS011;67256;51.154;4.164;2023-02-01T17:55:52;17.85;;;4.53;;
76292;SDS011;67256;51.154;4.164;2023-02-01T17:58:18;20.90;;;5.07;;